Arden, North Carolina
Current Conditions -  °F | °C
As of 8:54 AM on Friday 28 Nov 2014 (Local Time) from KAVL Reporting Station
Clear Clear  
Wind Chill: 17°   Ceiling: Unl
Heat Index: 27°   Visibility: 10mi
Dew Point: 16°   Wind: 12mph
Humidity: 63%   Direction: 360°N
Pressure: 30.34"   Gusts: NA
Location:  35.47°N, 82.52°W
Report Text: KAVL 281354Z 36010KT 10SM CLR M03/M09 A3034 RMK AO2 SLP291 T10281089
Loading
Personal Weather Stations






























Interactive Weather Map New forecast layout! Learn more

10-Day Weather Forecast

Advertisements
Track Severe Weather on mobile